createdAt,value
2023-10-23T00:01:01.573Z,7.13
2023-10-23T00:03:29.764Z,6.40
2023-10-23T00:05:57.840Z,6.50
2023-10-23T00:08:25.710Z,6.67
2023-10-23T00:10:53.588Z,6.20
2023-10-23T00:13:21.435Z,6.00
2023-10-23T00:15:49.569Z,6.07
2023-10-23T00:18:19.018Z,6.70
2023-10-23T00:20:46.956Z,6.93
2023-10-23T00:23:14.896Z,6.70
2023-10-23T00:25:43.153Z,7.17
2023-10-23T00:28:11.140Z,6.37
2023-10-23T00:30:39.007Z,7.40
2023-10-23T00:33:07.533Z,6.47
2023-10-23T00:35:37.293Z,6.10
2023-10-23T00:38:05.250Z,6.60
2023-10-23T00:40:33.554Z,7.10
2023-10-23T00:43:13.384Z,6.90
2023-10-23T00:45:49.505Z,6.13
2023-10-23T00:48:18.029Z,6.43
2023-10-23T00:50:48.162Z,6.80
2023-10-23T00:53:16.746Z,7.20
2023-10-23T00:55:46.869Z,6.63
2023-10-23T00:58:17.063Z,6.43
2023-10-23T01:00:46.537Z,6.20
2023-10-23T01:03:14.643Z,6.40
2023-10-23T01:05:42.872Z,6.80
2023-10-23T01:08:12.828Z,6.67
2023-10-23T01:10:41.044Z,5.87
2023-10-23T01:13:09.444Z,5.30
2023-10-23T01:15:37.661Z,5.80
2023-10-23T01:18:06.500Z,7.30
2023-10-23T01:20:34.835Z,6.43
2023-10-23T01:23:04.428Z,6.13
2023-10-23T01:25:34.050Z,5.77
2023-10-23T01:28:01.939Z,5.87
2023-10-23T01:30:29.987Z,5.53
2023-10-23T01:32:58.244Z,6.30
2023-10-23T01:35:26.749Z,5.47
2023-10-23T01:37:54.772Z,5.97
2023-10-23T01:40:22.731Z,5.90
2023-10-23T01:42:52.061Z,5.80
2023-10-23T01:45:21.096Z,5.70
2023-10-23T01:47:49.169Z,6.07
2023-10-23T01:50:17.274Z,5.73
2023-10-23T01:52:46.176Z,6.50
2023-10-23T01:55:14.171Z,5.93
2023-10-23T01:57:42.171Z,6.27
2023-10-23T02:00:12.640Z,5.77
2023-10-23T02:02:42.549Z,5.60
2023-10-23T02:05:11.193Z,5.23
2023-10-23T02:07:39.241Z,6.03
2023-10-23T02:10:08.326Z,5.73
2023-10-23T02:12:36.278Z,5.33
2023-10-23T02:15:05.701Z,5.30
2023-10-23T02:17:35.977Z,5.67
2023-10-23T02:20:06.285Z,6.63
2023-10-23T02:22:34.557Z,5.23
2023-10-23T02:25:03.129Z,5.93
2023-10-23T02:27:31.695Z,5.90
2023-10-23T02:29:59.564Z,5.20
2023-10-23T02:32:27.519Z,6.40
2023-10-23T02:34:57.987Z,5.03
2023-10-23T02:37:26.228Z,5.33
2023-10-23T02:39:54.789Z,5.63
2023-10-23T02:42:23.152Z,5.63
2023-10-23T02:44:51.074Z,6.10
2023-10-23T02:47:19.034Z,6.67
2023-10-23T02:49:46.898Z,6.90
2023-10-23T02:52:16.706Z,5.70
2023-10-23T02:54:44.750Z,5.93
2023-10-23T02:57:12.730Z,5.30
2023-10-23T02:59:47.805Z,4.60
2023-10-23T03:02:16.141Z,5.00
2023-10-23T03:04:44.046Z,6.00
2023-10-23T03:07:13.224Z,5.60
2023-10-23T03:09:42.746Z,6.13
2023-10-23T03:12:10.902Z,6.23
2023-10-23T03:14:38.838Z,5.50
2023-10-23T03:17:06.726Z,6.33
2023-10-23T03:19:34.652Z,5.57
2023-10-23T03:22:02.566Z,5.30
2023-10-23T03:24:30.552Z,6.10
2023-10-23T03:27:00.744Z,6.13
2023-10-23T03:29:28.673Z,5.80
2023-10-23T03:31:57.012Z,5.53
2023-10-23T03:34:26.113Z,5.30
2023-10-23T03:36:54.132Z,5.60
2023-10-23T03:39:22.094Z,5.63
2023-10-23T03:41:50.041Z,5.50
2023-10-23T03:44:19.450Z,5.20
2023-10-23T03:46:47.500Z,7.30
2023-10-23T03:49:15.452Z,6.60
2023-10-23T03:51:43.443Z,6.00
2023-10-23T03:54:12.307Z,5.80
2023-10-23T03:56:40.197Z,5.40
2023-10-23T03:59:08.090Z,5.30
2023-10-23T04:01:37.346Z,5.30
2023-10-23T04:04:05.670Z,5.43
2023-10-23T04:06:33.599Z,5.50
2023-10-23T04:09:01.517Z,4.97
2023-10-23T04:11:29.404Z,4.80
2023-10-23T04:13:57.656Z,4.30
2023-10-23T04:16:25.685Z,5.00
2023-10-23T04:18:55.306Z,5.53
2023-10-23T04:21:25.109Z,5.20
2023-10-23T04:23:53.044Z,4.97
2023-10-23T04:26:20.972Z,5.27
2023-10-23T04:28:48.856Z,5.20
2023-10-23T04:31:16.997Z,5.50
2023-10-23T04:33:45.136Z,5.23
2023-10-23T04:36:14.396Z,5.43
2023-10-23T04:38:42.773Z,5.27
2023-10-23T04:41:10.739Z,5.33
2023-10-23T04:43:38.888Z,5.63
2023-10-23T04:46:06.822Z,5.63
2023-10-23T04:48:34.876Z,6.00
2023-10-23T04:51:03.506Z,5.47
2023-10-23T04:53:32.783Z,5.87
2023-10-23T04:56:01.381Z,4.80
2023-10-23T04:58:30.886Z,5.60
2023-10-23T05:00:59.043Z,5.77
2023-10-23T05:03:27.157Z,5.30
2023-10-23T05:05:55.146Z,6.73
2023-10-23T05:08:23.022Z,6.20
2023-10-23T05:10:52.316Z,7.07
2023-10-23T05:13:20.335Z,5.77
2023-10-23T05:15:48.296Z,6.13
2023-10-23T05:18:16.252Z,6.20
2023-10-23T05:20:44.181Z,7.07
2023-10-23T05:23:12.106Z,6.40
2023-10-23T05:25:40.029Z,6.57
2023-10-23T05:28:09.298Z,6.40
2023-10-23T05:30:37.169Z,6.13
2023-10-23T05:33:05.520Z,5.50
2023-10-23T05:35:33.459Z,5.53
2023-10-23T05:38:01.330Z,5.23
2023-10-23T05:40:29.134Z,6.07
2023-10-23T05:42:57.078Z,5.10
2023-10-23T05:45:26.345Z,4.50
2023-10-23T05:47:54.361Z,6.00
2023-10-23T05:50:22.227Z,5.87
2023-10-23T05:52:50.125Z,6.30
2023-10-23T05:55:18.134Z,5.97
2023-10-23T05:57:48.012Z,5.73
2023-10-23T06:00:16.824Z,6.00
2023-10-23T06:02:46.095Z,6.17
2023-10-23T06:05:14.074Z,5.23
2023-10-23T06:07:42.403Z,4.70
2023-10-23T06:10:10.865Z,5.50
2023-10-23T06:12:38.878Z,5.60
2023-10-23T06:15:07.411Z,5.50
2023-10-23T06:17:35.433Z,5.67
2023-10-23T06:20:05.153Z,5.00
2023-10-23T06:22:33.150Z,4.63
2023-10-23T06:25:01.190Z,4.90
2023-10-23T06:27:29.096Z,4.63
2023-10-23T06:29:56.981Z,5.20
2023-10-23T06:32:24.911Z,3.87
2023-10-23T06:34:52.981Z,3.83
2023-10-23T06:37:22.348Z,3.70
2023-10-23T06:39:50.327Z,3.93
2023-10-23T06:42:18.370Z,4.40
2023-10-23T06:44:46.356Z,3.30
2023-10-23T06:47:14.302Z,4.23
2023-10-23T06:49:45.356Z,3.83
2023-10-23T06:52:13.343Z,4.27
2023-10-23T06:54:42.634Z,4.00
2023-10-23T06:57:10.629Z,4.17
2023-10-23T06:59:38.628Z,3.50
2023-10-23T07:02:06.647Z,4.17
2023-10-23T07:04:35.285Z,4.07
2023-10-23T07:07:14.209Z,4.23
2023-10-23T07:09:54.490Z,4.40
2023-10-23T07:12:22.531Z,4.30
2023-10-23T07:14:50.598Z,4.50
2023-10-23T07:17:18.852Z,4.20
2023-10-23T07:19:46.754Z,4.00
2023-10-23T07:22:14.683Z,4.00
2023-10-23T07:24:42.611Z,4.50
2023-10-23T07:27:16.394Z,4.47
2023-10-23T07:29:44.884Z,4.57
2023-10-23T07:32:12.963Z,4.33
2023-10-23T07:34:40.872Z,4.57
2023-10-23T07:37:08.763Z,5.10
2023-10-23T07:39:36.653Z,4.67
2023-10-23T07:42:05.124Z,4.63
2023-10-23T07:44:34.415Z,4.90
2023-10-23T07:47:02.390Z,4.00
2023-10-23T07:49:30.843Z,4.70
2023-10-23T07:51:58.935Z,4.33
2023-10-23T07:54:26.957Z,4.40
2023-10-23T07:56:56.490Z,5.00
2023-10-23T07:59:25.167Z,4.50
2023-10-23T08:01:54.729Z,5.00
2023-10-23T08:04:23.195Z,4.50
2023-10-23T08:06:51.226Z,4.90
2023-10-23T08:09:19.428Z,4.67
2023-10-23T08:11:47.367Z,4.80
2023-10-23T08:14:15.334Z,4.37
2023-10-23T08:16:43.331Z,4.93
2023-10-23T08:19:13.916Z,4.60
2023-10-23T08:21:42.356Z,4.60
2023-10-23T08:24:10.774Z,4.90
2023-10-23T08:26:39.310Z,5.17
2023-10-23T08:29:07.178Z,4.93
2023-10-23T08:31:39.982Z,4.90
2023-10-23T08:34:09.826Z,4.70
2023-10-23T08:36:39.608Z,4.80
2023-10-23T08:39:07.710Z,4.93
2023-10-23T08:41:38.834Z,5.87
2023-10-23T08:44:09.025Z,4.70
2023-10-23T08:46:38.275Z,4.77
2023-10-23T08:49:06.404Z,4.50
2023-10-23T08:51:36.488Z,5.60
2023-10-23T08:54:11.441Z,4.50
2023-10-23T08:56:41.039Z,4.30
2023-10-23T08:59:11.372Z,4.00
2023-10-23T09:01:39.831Z,4.30
2023-10-23T09:04:11.781Z,4.20
2023-10-23T09:06:40.609Z,4.33
2023-10-23T09:09:10.307Z,4.20
2023-10-23T09:11:44.623Z,4.27
2023-10-23T09:14:14.048Z,4.10
2023-10-23T09:16:42.287Z,4.00
2023-10-23T09:19:10.317Z,5.03
2023-10-23T09:21:38.272Z,3.90
2023-10-23T09:24:07.571Z,4.60
2023-10-23T09:26:36.853Z,4.87
2023-10-23T09:29:04.851Z,4.47
2023-10-23T09:31:32.828Z,4.20
2023-10-23T09:34:03.935Z,4.57
2023-10-23T09:36:32.971Z,3.90
2023-10-23T09:39:02.143Z,4.50
2023-10-23T09:41:31.428Z,4.00
2023-10-23T09:44:01.921Z,4.97
2023-10-23T09:46:31.288Z,4.87
2023-10-23T09:49:03.907Z,5.00
2023-10-23T09:51:37.999Z,4.40
2023-10-23T09:54:15.595Z,4.33
2023-10-23T09:56:49.143Z,4.60
2023-10-23T09:59:20.152Z,4.23
2023-10-23T10:01:51.210Z,4.20
2023-10-23T10:04:25.759Z,4.07
2023-10-23T10:06:56.762Z,4.07
2023-10-23T10:09:26.883Z,3.90
2023-10-23T10:11:57.052Z,4.50
2023-10-23T10:14:27.338Z,4.20
2023-10-23T10:16:57.648Z,5.00
2023-10-23T10:19:27.867Z,4.27
2023-10-23T10:22:05.283Z,5.07
2023-10-23T10:24:34.437Z,4.73
2023-10-23T10:27:04.904Z,4.20
2023-10-23T10:29:34.853Z,4.10
2023-10-23T10:32:11.895Z,3.80
2023-10-23T10:34:56.601Z,4.07
2023-10-23T10:37:28.004Z,3.40
2023-10-23T10:40:07.409Z,3.70
2023-10-23T10:42:43.330Z,3.80
2023-10-23T10:45:20.857Z,3.43
2023-10-23T10:47:50.982Z,3.40
2023-10-23T10:50:35.209Z,3.73
2023-10-23T10:53:04.838Z,3.53
2023-10-23T10:55:33.539Z,3.90
2023-10-23T10:58:01.906Z,4.20
2023-10-23T11:00:36.691Z,4.00
2023-10-23T11:03:05.298Z,4.30
2023-10-23T11:05:34.091Z,4.23
2023-10-23T11:08:02.357Z,4.07
2023-10-23T11:10:30.403Z,3.67
2023-10-23T11:12:58.451Z,4.00
2023-10-23T11:15:27.076Z,4.40
2023-10-23T11:17:56.561Z,4.20
2023-10-23T11:20:29.482Z,7.17
2023-10-23T11:22:57.507Z,9.60
2023-10-23T11:25:25.669Z,8.60
2023-10-23T11:27:56.011Z,6.27
2023-10-23T11:30:27.007Z,6.30
2023-10-23T11:32:57.854Z,6.73
2023-10-23T11:35:34.353Z,7.80
2023-10-23T11:38:05.464Z,6.50
2023-10-23T11:40:38.081Z,5.83
2023-10-23T11:43:06.399Z,3.90
2023-10-23T11:45:34.386Z,3.80
2023-10-23T11:48:04.845Z,4.10
2023-10-23T11:50:34.372Z,4.23
2023-10-23T11:53:04.764Z,4.53
2023-10-23T11:55:33.197Z,3.53
2023-10-23T11:58:01.668Z,3.77
2023-10-23T12:00:29.694Z,3.40
2023-10-23T12:02:59.443Z,3.50
2023-10-23T12:05:29.065Z,3.50
2023-10-23T12:07:58.186Z,3.43
2023-10-23T12:10:28.173Z,3.50
2023-10-23T12:12:57.174Z,3.10
2023-10-23T12:15:25.678Z,3.17
2023-10-23T12:17:53.685Z,3.50
2023-10-23T12:20:23.601Z,4.60
2023-10-23T12:22:53.360Z,3.70
2023-10-23T12:25:21.868Z,3.50
2023-10-23T12:27:50.873Z,3.27
2023-10-23T12:30:23.843Z,3.50
2023-10-23T12:33:13.657Z,3.37
2023-10-23T12:35:45.198Z,3.70
2023-10-23T12:38:14.531Z,3.60
2023-10-23T12:40:44.290Z,3.37
2023-10-23T12:43:12.566Z,4.63
2023-10-23T12:45:40.612Z,4.60
2023-10-23T12:48:08.611Z,4.53
2023-10-23T12:50:37.148Z,4.57
2023-10-23T12:53:05.570Z,2.97
2023-10-23T12:55:34.976Z,2.70
2023-10-23T12:58:04.072Z,3.00
2023-10-23T13:00:32.277Z,3.03
2023-10-23T13:03:00.200Z,3.10
2023-10-23T13:05:28.510Z,3.20
2023-10-23T13:07:56.434Z,2.73
2023-10-23T13:10:24.473Z,3.80
2023-10-23T13:12:53.862Z,3.00
2023-10-23T13:15:21.968Z,5.43
2023-10-23T13:17:50.000Z,4.50
2023-10-23T13:21:30.767Z,3.40
2023-10-23T13:23:05.945Z,3.10
2023-10-23T13:25:36.019Z,3.17
2023-10-23T13:28:06.917Z,3.47
2023-10-23T13:30:34.995Z,2.80
2023-10-23T13:33:04.380Z,2.80
2023-10-23T13:35:34.072Z,2.60
2023-10-23T13:38:02.072Z,2.77
2023-10-23T13:40:30.315Z,2.90
2023-10-23T13:42:58.818Z,2.37
2023-10-23T13:45:28.208Z,2.60
2023-10-23T13:47:58.246Z,4.20
2023-10-23T13:50:26.733Z,11.60
2023-10-23T13:52:55.038Z,4.40
2023-10-23T13:55:22.957Z,3.37
2023-10-23T13:57:50.928Z,2.30
2023-10-23T14:00:20.192Z,2.40
2023-10-23T14:02:49.872Z,2.63
2023-10-23T14:05:18.253Z,2.37
2023-10-23T14:07:47.136Z,2.50
2023-10-23T14:10:21.575Z,2.20
2023-10-23T14:12:52.579Z,3.30
2023-10-23T14:15:21.178Z,11.07
2023-10-23T14:17:50.760Z,8.90
2023-10-23T14:20:19.038Z,5.60
2023-10-23T14:22:47.512Z,3.60
2023-10-23T14:25:15.738Z,2.30
2023-10-23T14:27:44.302Z,2.77
2023-10-23T14:30:13.829Z,2.57
2023-10-23T14:32:43.480Z,5.43
2023-10-23T14:35:13.422Z,11.53
2023-10-23T14:37:41.553Z,14.57
2023-10-23T14:40:11.459Z,9.40
2023-10-23T14:42:40.125Z,4.67
2023-10-23T14:45:09.130Z,3.50
2023-10-23T14:47:38.544Z,3.00
2023-10-23T14:50:08.351Z,2.20
2023-10-23T14:52:37.748Z,2.50
2023-10-23T14:55:07.095Z,2.43
2023-10-23T14:57:35.264Z,2.60
2023-10-23T15:00:05.103Z,2.60
2023-10-23T15:02:34.074Z,2.80
2023-10-23T15:05:02.338Z,3.23
2023-10-23T15:07:30.437Z,3.10
2023-10-23T15:09:59.857Z,2.80
2023-10-23T15:12:28.257Z,2.97
2023-10-23T15:14:57.431Z,3.10
2023-10-23T15:17:25.525Z,2.53
2023-10-23T15:19:56.746Z,2.90
2023-10-23T15:22:24.790Z,3.00
2023-10-23T15:24:52.950Z,3.50
2023-10-23T15:27:22.573Z,2.73
2023-10-23T15:29:50.571Z,3.30
2023-10-23T15:32:18.539Z,4.77
2023-10-23T15:34:47.630Z,5.87
2023-10-23T15:37:15.633Z,3.83
2023-10-23T15:39:45.153Z,3.30
2023-10-23T15:42:13.030Z,3.37
2023-10-23T15:44:43.266Z,2.40
2023-10-23T15:47:11.441Z,2.50
2023-10-23T15:49:39.983Z,2.67
2023-10-23T15:52:08.233Z,2.97
2023-10-23T15:54:36.304Z,5.60
2023-10-23T15:57:04.816Z,3.50
2023-10-23T15:59:33.195Z,3.40
2023-10-23T16:02:02.694Z,3.10
2023-10-23T16:04:31.360Z,3.30
2023-10-23T16:06:59.697Z,3.50
2023-10-23T16:09:28.606Z,2.90
2023-10-23T16:11:57.064Z,3.10
2023-10-23T16:14:53.675Z,3.50
2023-10-23T16:17:26.374Z,10.83
2023-10-23T16:19:54.528Z,5.80
2023-10-23T16:22:23.972Z,5.43
2023-10-23T16:24:52.002Z,2.97
2023-10-23T16:27:19.892Z,2.60
2023-10-23T16:29:50.221Z,3.37
2023-10-23T16:32:18.719Z,3.47
2023-10-23T16:34:50.295Z,3.53
2023-10-23T16:37:18.773Z,4.17
2023-10-23T16:39:47.102Z,3.40
2023-10-23T16:42:15.440Z,3.87
2023-10-23T16:44:55.456Z,3.33
2023-10-23T16:47:24.772Z,3.73
2023-10-23T16:49:54.550Z,3.90
2023-10-23T16:52:22.524Z,3.80
2023-10-23T16:54:50.920Z,3.87
2023-10-23T16:57:18.981Z,4.13
2023-10-23T16:59:48.572Z,3.70
2023-10-23T17:02:16.910Z,3.10
2023-10-23T17:04:45.926Z,3.80
2023-10-23T17:07:18.051Z,3.50
2023-10-23T17:09:46.712Z,3.83
2023-10-23T17:12:14.955Z,3.33
2023-10-23T17:14:43.376Z,3.87
2023-10-23T17:17:12.243Z,3.37
2023-10-23T17:19:41.760Z,3.23
2023-10-23T17:22:10.438Z,3.67
2023-10-23T17:24:39.791Z,4.60
2023-10-23T17:27:09.903Z,3.70
2023-10-23T17:29:38.100Z,3.57
2023-10-23T17:32:09.680Z,4.10
2023-10-23T17:34:38.920Z,3.77
2023-10-23T17:37:07.327Z,4.37
2023-10-23T17:39:35.539Z,3.73
2023-10-23T17:42:20.470Z,4.23
2023-10-23T17:44:48.818Z,4.80
2023-10-23T17:47:17.320Z,4.53
2023-10-23T17:49:45.732Z,5.50
2023-10-23T17:52:14.020Z,5.10
2023-10-23T17:54:45.682Z,5.00
2023-10-23T17:57:16.917Z,5.60
2023-10-23T17:59:44.892Z,5.00
2023-10-23T18:02:12.914Z,5.50
2023-10-23T18:04:41.308Z,5.50
2023-10-23T18:07:09.547Z,5.10
2023-10-23T18:09:38.000Z,5.40
2023-10-23T18:12:06.350Z,5.83
2023-10-23T18:14:36.084Z,5.47
2023-10-23T18:17:04.604Z,5.57
2023-10-23T18:19:32.662Z,6.10
2023-10-23T18:22:00.861Z,5.87
2023-10-23T18:24:28.922Z,7.30
2023-10-23T18:26:59.181Z,6.10
2023-10-23T18:29:27.069Z,6.07
2023-10-23T18:31:57.254Z,5.20
2023-10-23T18:34:25.249Z,5.60
2023-10-23T18:36:53.206Z,5.37
2023-10-23T18:39:21.809Z,5.30
2023-10-23T18:41:50.971Z,5.10
2023-10-23T18:44:19.024Z,4.90
2023-10-23T18:46:47.391Z,4.93
2023-10-23T18:49:17.106Z,5.80
2023-10-23T18:51:45.045Z,5.70
2023-10-23T18:54:15.656Z,5.80
2023-10-23T18:56:43.632Z,5.80
2023-10-23T18:59:12.486Z,7.17
2023-10-23T19:01:40.517Z,6.77
2023-10-23T19:04:08.520Z,7.63
2023-10-23T19:06:39.707Z,7.17
2023-10-23T19:09:08.846Z,6.90
2023-10-23T19:11:36.769Z,6.63
2023-10-23T19:14:04.751Z,7.23
2023-10-23T19:16:32.788Z,6.90
2023-10-23T19:19:00.757Z,6.23
2023-10-23T19:21:28.825Z,6.40
2023-10-23T19:23:58.065Z,6.27
2023-10-23T19:26:25.972Z,6.57
2023-10-23T19:28:53.896Z,6.07
2023-10-23T19:31:24.350Z,6.20
2023-10-23T19:33:53.110Z,5.97
2023-10-23T19:36:21.762Z,6.67
2023-10-23T19:38:49.427Z,6.87
2023-10-23T19:41:24.612Z,8.03
2023-10-23T19:43:53.035Z,5.93
2023-10-23T19:46:21.833Z,5.70
2023-10-23T19:48:50.735Z,6.00
2023-10-23T19:51:19.448Z,5.70
2023-10-23T19:53:51.731Z,5.90
2023-10-23T19:56:30.315Z,6.50
2023-10-23T19:59:01.355Z,6.37
2023-10-23T20:01:29.807Z,6.67
2023-10-23T20:03:57.997Z,7.33
2023-10-23T20:06:26.436Z,5.70
2023-10-23T20:08:54.661Z,5.70
2023-10-23T20:11:24.026Z,5.53
2023-10-23T20:13:52.009Z,5.23
2023-10-23T20:16:20.005Z,5.50
2023-10-23T20:18:48.048Z,5.83
2023-10-23T20:21:16.364Z,5.73
2023-10-23T20:23:44.266Z,6.10
2023-10-23T20:26:15.474Z,5.60
2023-10-23T20:28:45.625Z,5.40
2023-10-23T20:31:15.038Z,5.40
2023-10-23T20:33:43.679Z,4.87
2023-10-23T20:36:11.937Z,5.90
2023-10-23T20:38:40.134Z,4.80
2023-10-23T20:41:08.510Z,4.70
2023-10-23T20:43:36.458Z,5.13
2023-10-23T20:46:08.559Z,4.50
2023-10-23T20:48:37.108Z,4.83
2023-10-23T20:51:06.784Z,5.40
2023-10-23T20:53:34.793Z,4.70
2023-10-23T20:56:03.739Z,4.83
2023-10-23T20:58:31.944Z,4.33
2023-10-23T21:01:07.047Z,4.87
2023-10-23T21:03:36.647Z,4.90
2023-10-23T21:06:06.530Z,5.00
2023-10-23T21:08:37.683Z,4.47
2023-10-23T21:11:06.346Z,4.60
2023-10-23T21:13:34.632Z,5.23
2023-10-23T21:16:02.975Z,5.10
2023-10-23T21:18:32.528Z,5.00
2023-10-23T21:21:01.173Z,4.70
2023-10-23T21:23:29.728Z,4.87
2023-10-23T21:25:57.678Z,5.13
2023-10-23T21:28:27.031Z,4.90
2023-10-23T21:30:55.290Z,4.87
2023-10-23T21:33:23.394Z,4.77
2023-10-23T21:35:53.473Z,4.90
2023-10-23T21:38:21.535Z,9.27
2023-10-23T21:40:50.041Z,5.50
2023-10-23T21:43:19.925Z,5.40
2023-10-23T21:45:53.460Z,5.80
2023-10-23T21:48:26.780Z,5.13
2023-10-23T21:50:56.075Z,4.73
2023-10-23T21:53:24.490Z,5.00
2023-10-23T21:55:52.816Z,5.33
2023-10-23T21:58:21.395Z,4.50
2023-10-23T22:00:50.060Z,5.60
2023-10-23T22:03:18.993Z,4.90
2023-10-23T22:05:48.570Z,5.10
2023-10-23T22:08:18.474Z,5.57
2023-10-23T22:10:46.966Z,5.07
2023-10-23T22:13:15.304Z,5.03
2023-10-23T22:15:43.388Z,5.13
2023-10-23T22:18:11.630Z,5.20
2023-10-23T22:20:39.580Z,5.33
2023-10-23T22:23:07.443Z,6.10
2023-10-23T22:25:36.863Z,6.20
2023-10-23T22:28:05.330Z,6.20
2023-10-23T22:30:33.611Z,5.00
2023-10-23T22:33:14.670Z,5.50
2023-10-23T22:35:42.983Z,5.00
2023-10-23T22:38:13.886Z,5.40
2023-10-23T22:40:44.985Z,4.30
2023-10-23T22:43:13.804Z,5.03
2023-10-23T22:45:51.409Z,5.00
2023-10-23T22:48:27.509Z,4.77
2023-10-23T22:50:56.327Z,4.80
2023-10-23T22:53:25.289Z,4.70
2023-10-23T22:55:56.579Z,5.17
2023-10-23T22:58:30.011Z,4.87
2023-10-23T23:00:58.429Z,4.90
2023-10-23T23:03:26.969Z,5.20
2023-10-23T23:06:02.585Z,4.47
2023-10-23T23:08:32.002Z,5.30
2023-10-23T23:11:01.934Z,5.13
2023-10-23T23:13:30.656Z,4.73
2023-10-23T23:16:03.903Z,4.90
2023-10-23T23:18:32.655Z,4.90
2023-10-23T23:21:04.588Z,4.47
2023-10-23T23:23:32.424Z,5.03
2023-10-23T23:26:01.666Z,4.60
2023-10-23T23:28:29.619Z,5.50
2023-10-23T23:30:57.553Z,6.03
2023-10-23T23:33:25.492Z,6.03
2023-10-23T23:35:56.455Z,6.43
2023-10-23T23:38:24.473Z,6.20
2023-10-23T23:40:53.262Z,5.60
2023-10-23T23:43:22.511Z,5.50
2023-10-23T23:45:51.065Z,5.50
2023-10-23T23:48:18.939Z,5.70
2023-10-23T23:50:46.812Z,5.10
2023-10-23T23:53:14.816Z,5.67
2023-10-23T23:55:42.885Z,5.13
2023-10-23T23:58:11.065Z,5.20
